Tillamook, OR

10:43 AM PST on December 21, 2014 (GMT -0800)
Greentree Ridge | Change Station
CLOSE
Current Station
Personal Weather Station
Location: Tillamook, OR
Elevation: 197 ft
Nearby Weather Stations

Elev 197 ft 45.45 °N, 123.78 °W | Updated 8 seconds ago

Mostly Cloudy
Mostly Cloudy
54.7 °F
Feels Like 54.7 °F
N
10.3
Wind Variable Wind from SW
Gusts 10.3 mph

Today
High -- | Low -- °F
--% Chance of Precip.
Yesterday
High -- | Low -- °F
Precip. -- in
7:51 AM 4:34 PM
Waning Crescent, 0% visible
Pressure 30.10 in
Visibility 5.0 miles
Clouds Scattered Clouds 1400 ft
Mostly Cloudy 4600 ft
Overcast 8000 ft
Dew Point 54 °F
Humidity 98%
Rainfall 0.20 in
Snow Depth Not available.
UV 0.0 out of 12
Pollen .50 out of 12
Air Quality Not available.
Flu Activity Not available.
METAR KTMK 211835Z AUTO 24009G14KT 5SM BR SCT014 BKN046 OVC080 13/12 A3010 RMK AO2 P0001

More Conditions Fewer Conditions

Pressure 30.10 in
Visibility 5.0 miles
Clouds Scattered Clouds 1400 ft
Mostly Cloudy 4600 ft
Overcast 8000 ft
Dew Point 54 °F
Humidity 98%
Rainfall 0.20 in
Snow Depth Not available.
UV 0.0 out of 12
Pollen .50 out of 12
Air Quality Not available.
Flu Activity Not available.
METAR KTMK 211835Z AUTO 24009G14KT 5SM BR SCT014 BKN046 OVC080 13/12 A3010 RMK AO2 P0001

More Conditions Fewer Conditions

10-Day Weather Forecast

Almanac

Astronomy

Dec. 21, 2014 Rise Set
Actual Time
Civil Twilight
Nautical Twilight
Astronomical Twilight
Moon
Length of Visible Light
Length of Day
Tomorrow will be .
, % of the Moon is Illuminated

Today's Extremes

State Highs State Lows

Community

WunderPhotos

Upload Photos

1,779,451 photos uploaded!

WunderBlogs® & News

Nearby

Air Quality

  Air Quality AQ Index Pollutant
Not available.

Snow Depth

Station Depth Elevation

Earthquake Activity

City Distance Mag. Time & Date
Minimum magnitude displayed is 2.5.

Coastal Water Temperatures

Place Temperature

Nearby Weather Stations